Time;durP1;ratioP1;P1;durP2;ratioP2;P2;SDS_P1;SDS_P2;PMS_P1;PMS_P2;Temp;Humidity;BMP_temperature;BMP_pressure;BME280_temperature;BME280_humidity;BME280_pressure;Samples;Min_cycle;Max_cycle;Signal;HPM_P1;HPM_P2
2021/03/02 00:00:13;;;;;;;8.37;5.93;;;;;;;;;;5035148;28;20419;-75
2021/03/02 00:02:40;;;;;;;9.47;6.90;;;;;;;;;;5034908;28;20449;-75
2021/03/02 00:05:08;;;;;;;6.23;5.30;;;;;;;;;;5035080;28;20785;-77
2021/03/02 00:07:35;;;;;;;8.10;5.83;;;;;;;;;;5032281;28;20422;-74
2021/03/02 00:10:02;;;;;;;8.27;5.85;;;;;;;;;;5014979;28;20842;-79
2021/03/02 00:12:28;;;;;;;6.20;5.23;;;;;;;;;;5032286;28;20181;-73
2021/03/02 00:14:54;;;;;;;10.40;6.90;;;;;;;;;;5032788;28;20468;-78
2021/03/02 00:17:23;;;;;;;9.33;6.67;;;;;;;;;;5016082;28;20972;-75
2021/03/02 00:19:55;;;;;;;9.43;6.83;;;;;;;;;;5033486;28;20442;-74
2021/03/02 00:22:24;;;;;;;10.77;7.33;;;;;;;;;;5032267;28;20410;-76
2021/03/02 00:27:55;;;;;;;10.73;8.00;;;;;;;;;;5032581;28;20508;-79
2021/03/02 00:30:22;;;;;;;11.45;7.18;;;;;;;;;;5031931;28;20169;-80
2021/03/02 00:32:48;;;;;;;12.10;7.40;;;;;;;;;;5032136;28;20180;-77
2021/03/02 00:35:14;;;;;;;7.18;6.35;;;;;;;;;;5031755;28;20482;-80
2021/03/02 00:43:28;;;;;;;10.00;7.80;;;;;;;;;;5033037;28;20774;-74
2021/03/02 00:45:54;;;;;;;11.75;7.57;;;;;;;;;;5032791;28;20728;-82
2021/03/02 00:48:20;;;;;;;10.32;7.80;;;;;;;;;;5033213;28;20169;-82
2021/03/02 00:50:46;;;;;;;9.05;6.55;;;;;;;;;;5033017;28;20181;-80
2021/03/02 00:53:12;;;;;;;9.43;7.40;;;;;;;;;;5032889;28;20228;-79
2021/03/02 00:55:38;;;;;;;9.18;6.50;;;;;;;;;;5014840;28;20478;-77
2021/03/02 00:58:04;;;;;;;9.13;6.43;;;;;;;;;;5032768;28;20665;-78
2021/03/02 01:00:30;;;;;;;10.30;6.55;;;;;;;;;;5032665;28;20415;-76
2021/03/02 01:02:56;;;;;;;9.90;8.60;;;;;;;;;;5015263;28;20176;-79
2021/03/02 01:05:22;;;;;;;8.90;6.43;;;;;;;;;;5032706;28;20438;-79
2021/03/02 01:07:48;;;;;;;8.13;6.33;;;;;;;;;;5032629;28;20524;-78
2021/03/02 01:13:18;;;;;;;9.50;6.35;;;;;;;;;;5039368;28;20442;-74
2021/03/02 01:15:44;;;;;;;12.73;6.60;;;;;;;;;;5034496;28;20223;-75
2021/03/02 01:18:10;;;;;;;6.37;5.60;;;;;;;;;;5036095;28;20429;-73
2021/03/02 01:20:36;;;;;;;7.30;6.50;;;;;;;;;;5034602;28;20446;-79
2021/03/02 01:23:02;;;;;;;10.18;6.53;;;;;;;;;;5032413;28;20248;-74
2021/03/02 01:25:28;;;;;;;11.33;6.63;;;;;;;;;;5032458;28;20184;-78
2021/03/02 01:27:54;;;;;;;7.30;6.43;;;;;;;;;;5032443;28;20403;-76
2021/03/02 01:30:22;;;;;;;6.82;6.15;;;;;;;;;;5032339;28;20512;-76
2021/03/02 01:32:48;;;;;;;8.57;5.57;;;;;;;;;;5032098;28;20172;-76
2021/03/02 01:35:14;;;;;;;11.07;7.27;;;;;;;;;;5031648;28;20212;-77
2021/03/02 01:37:40;;;;;;;7.85;6.30;;;;;;;;;;5032151;28;20412;-76
2021/03/02 01:43:10;;;;;;;7.75;5.63;;;;;;;;;;5032252;28;20314;-78
2021/03/02 01:45:37;;;;;;;10.77;7.25;;;;;;;;;;5032063;28;20731;-75
2021/03/02 01:48:03;;;;;;;6.85;5.68;;;;;;;;;;5032324;28;20176;-78
2021/03/02 01:50:29;;;;;;;8.55;7.55;;;;;;;;;;5032018;28;20185;-78
2021/03/02 01:52:55;;;;;;;7.88;6.13;;;;;;;;;;5031924;28;20231;-73
2021/03/02 01:58:26;;;;;;;8.35;6.50;;;;;;;;;;5031934;28;20509;-78
2021/03/02 02:01:05;;;;;;;9.75;7.38;;;;;;;;;;5032238;28;20619;-77
2021/03/02 02:03:39;;;;;;;10.73;6.85;;;;;;;;;;5032547;28;20183;-75
2021/03/02 02:06:08;;;;;;;8.20;6.72;;;;;;;;;;5032456;28;20271;-79
2021/03/02 02:08:40;;;;;;;7.47;5.88;;;;;;;;;;5032095;28;20195;-77
2021/03/02 02:11:14;;;;;;;8.75;6.43;;;;;;;;;;5031971;28;20174;-79
2021/03/02 02:13:48;;;;;;;9.05;6.13;;;;;;;;;;5032277;28;20584;-78
2021/03/02 02:16:15;;;;;;;10.75;7.80;;;;;;;;;;5032071;28;20191;-78
2021/03/02 02:18:42;;;;;;;8.27;6.15;;;;;;;;;;5032385;28;20169;-78
2021/03/02 02:21:15;;;;;;;8.52;5.90;;;;;;;;;;5032125;28;20183;-75
2021/03/02 02:23:55;;;;;;;8.00;5.93;;;;;;;;;;5031993;28;20176;-80
2021/03/02 02:26:39;;;;;;;10.55;6.13;;;;;;;;;;5032822;28;20172;-75
2021/03/02 02:29:06;;;;;;;7.65;5.93;;;;;;;;;;5036035;28;20588;-74
2021/03/02 02:31:33;;;;;;;6.05;5.22;;;;;;;;;;5035698;28;20190;-75
2021/03/02 02:33:59;;;;;;;7.68;6.35;;;;;;;;;;5035428;28;20642;-79
2021/03/02 02:36:25;;;;;;;12.05;6.57;;;;;;;;;;5035466;28;20207;-76
2021/03/02 02:38:52;;;;;;;7.07;5.88;;;;;;;;;;5035309;28;20168;-81
2021/03/02 02:41:20;;;;;;;8.88;4.88;;;;;;;;;;5035452;28;20201;-74
2021/03/02 02:43:46;;;;;;;9.40;5.72;;;;;;;;;;5035478;28;20527;-80
2021/03/02 02:46:12;;;;;;;9.63;5.68;;;;;;;;;;5035133;28;20202;-78
2021/03/02 02:48:38;;;;;;;7.30;5.18;;;;;;;;;;5035179;28;20170;-78
2021/03/02 02:51:04;;;;;;;10.23;6.10;;;;;;;;;;5035024;28;20171;-77
2021/03/02 02:53:31;;;;;;;7.95;5.95;;;;;;;;;;5035079;28;20976;-80
2021/03/02 02:56:02;;;;;;;9.80;5.65;;;;;;;;;;5039335;28;20215;-77
2021/03/02 02:58:31;;;;;;;8.23;5.45;;;;;;;;;;5045621;28;20170;-78
2021/03/02 03:00:58;;;;;;;11.80;5.80;;;;;;;;;;5037823;28;20516;-77
2021/03/02 03:03:26;;;;;;;7.53;6.40;;;;;;;;;;5034920;28;20618;-75
2021/03/02 03:05:56;;;;;;;6.95;5.53;;;;;;;;;;5034822;28;20175;-76
2021/03/02 03:08:23;;;;;;;8.32;6.32;;;;;;;;;;5035390;28;20220;-77
2021/03/02 03:13:53;;;;;;;8.00;6.80;;;;;;;;;;5037234;28;20660;-77
2021/03/02 03:16:21;;;;;;;8.93;6.20;;;;;;;;;;5034608;28;20605;-80
2021/03/02 03:18:56;;;;;;;6.95;6.30;;;;;;;;;;5036192;28;20182;-78
2021/03/02 03:21:22;;;;;;;9.77;6.97;;;;;;;;;;5037089;28;20266;-79
2021/03/02 03:23:50;;;;;;;10.02;7.45;;;;;;;;;;5036552;28;20174;-75
2021/03/02 03:26:17;;;;;;;9.88;6.10;;;;;;;;;;5034447;28;20249;-76
2021/03/02 03:28:45;;;;;;;7.95;6.05;;;;;;;;;;5034446;28;20170;-78
2021/03/02 03:31:11;;;;;;;9.80;6.90;;;;;;;;;;5016798;28;20332;-78
2021/03/02 03:33:38;;;;;;;7.20;5.60;;;;;;;;;;5034355;28;20211;-75
2021/03/02 03:36:04;;;;;;;11.65;8.20;;;;;;;;;;5033720;28;20235;-78
2021/03/02 03:38:30;;;;;;;8.20;6.70;;;;;;;;;;5034072;28;20170;-80
2021/03/02 03:44:00;;;;;;;10.55;6.85;;;;;;;;;;5034088;28;20454;-78
2021/03/02 03:46:26;;;;;;;9.95;6.13;;;;;;;;;;5033861;28;20174;-76
2021/03/02 03:48:52;;;;;;;14.50;6.55;;;;;;;;;;5033864;28;20183;-79
2021/03/02 03:51:18;;;;;;;12.00;7.00;;;;;;;;;;5033827;28;20181;-74
2021/03/02 03:53:45;;;;;;;9.40;7.43;;;;;;;;;;5033863;28;20281;-78
2021/03/02 03:59:15;;;;;;;9.25;6.75;;;;;;;;;;5034214;28;20192;-79
2021/03/02 04:01:41;;;;;;;8.75;7.13;;;;;;;;;;5033769;28;20175;-74
2021/03/02 04:04:08;;;;;;;8.77;6.13;;;;;;;;;;5033682;28;20188;-75
2021/03/02 04:06:34;;;;;;;12.10;6.90;;;;;;;;;;5033866;28;20786;-78
2021/03/02 04:09:01;;;;;;;11.02;8.45;;;;;;;;;;5033771;28;20165;-76
2021/03/02 04:11:27;;;;;;;13.70;7.13;;;;;;;;;;5033825;28;20201;-79
2021/03/02 04:13:55;;;;;;;9.40;7.43;;;;;;;;;;5033305;28;20177;-77
2021/03/02 04:16:21;;;;;;;9.77;6.78;;;;;;;;;;5033214;28;20880;-79
2021/03/02 04:18:47;;;;;;;11.38;7.60;;;;;;;;;;5033692;28;20645;-78
2021/03/02 04:21:13;;;;;;;12.65;7.68;;;;;;;;;;5033569;28;20572;-78
2021/03/02 04:23:40;;;;;;;13.35;7.00;;;;;;;;;;5033773;28;20238;-76
2021/03/02 04:29:09;;;;;;;10.55;8.23;;;;;;;;;;5033548;28;20170;-76
2021/03/02 04:31:35;;;;;;;11.05;7.97;;;;;;;;;;5033373;28;20170;-76
2021/03/02 04:34:01;;;;;;;11.17;7.17;;;;;;;;;;5033329;28;20215;-78
2021/03/02 04:36:27;;;;;;;11.95;7.95;;;;;;;;;;5033516;28;20432;-78
2021/03/02 04:38:53;;;;;;;9.27;7.50;;;;;;;;;;5038181;28;20174;-75
2021/03/02 04:44:23;;;;;;;12.70;8.20;;;;;;;;;;5034537;28;20950;-76
2021/03/02 04:46:49;;;;;;;10.10;6.50;;;;;;;;;;5033262;28;20256;-76
2021/03/02 04:49:15;;;;;;;15.90;7.90;;;;;;;;;;5014902;28;20436;-77
2021/03/02 04:51:41;;;;;;;12.93;7.67;;;;;;;;;;5033018;28;20459;-72
2021/03/02 04:54:07;;;;;;;12.90;7.67;;;;;;;;;;5032621;28;20641;-78
2021/03/02 04:59:36;;;;;;;10.05;7.80;;;;;;;;;;5033044;28;20420;-77
2021/03/02 05:02:02;;;;;;;13.23;7.20;;;;;;;;;;5033109;28;20523;-77
2021/03/02 05:04:28;;;;;;;9.97;7.13;;;;;;;;;;5032912;28;20474;-76
2021/03/02 05:06:54;;;;;;;12.88;7.53;;;;;;;;;;5032703;28;20870;-77
2021/03/02 05:09:20;;;;;;;12.57;7.78;;;;;;;;;;5033083;28;20196;-79
2021/03/02 05:11:46;;;;;;;11.80;7.90;;;;;;;;;;5032886;28;20649;-78
2021/03/02 05:14:12;;;;;;;13.60;7.40;;;;;;;;;;5032478;28;20463;-75
2021/03/02 05:16:38;;;;;;;11.80;7.80;;;;;;;;;;5032513;28;20418;-75
2021/03/02 05:19:04;;;;;;;12.93;8.20;;;;;;;;;;5033163;28;20408;-80
2021/03/02 05:21:30;;;;;;;8.60;6.40;;;;;;;;;;5033251;28;20174;-78
2021/03/02 05:23:56;;;;;;;10.60;7.00;;;;;;;;;;5032746;28;20181;-77
2021/03/02 05:29:25;;;;;;;11.63;7.75;;;;;;;;;;5032774;28;20192;-75
2021/03/02 05:31:51;;;;;;;10.43;7.20;;;;;;;;;;5032404;28;20161;-79
2021/03/02 05:34:17;;;;;;;9.50;7.50;;;;;;;;;;5032370;28;20785;-81
2021/03/02 05:36:43;;;;;;;11.30;7.03;;;;;;;;;;5032837;28;20427;-75
2021/03/02 05:39:09;;;;;;;11.15;7.93;;;;;;;;;;5014571;28;20513;-81
2021/03/02 05:44:39;;;;;;;13.15;7.30;;;;;;;;;;5032653;28;20297;-79
2021/03/02 05:47:05;;;;;;;11.18;8.40;;;;;;;;;;5032100;28;20180;-77
2021/03/02 05:49:31;;;;;;;12.25;8.07;;;;;;;;;;5032444;28;20173;-75
2021/03/02 05:51:57;;;;;;;12.15;6.78;;;;;;;;;;5014368;28;20180;-79
2021/03/02 05:54:23;;;;;;;13.60;8.70;;;;;;;;;;5032096;28;20232;-78
2021/03/02 05:59:53;;;;;;;15.75;9.52;;;;;;;;;;5032790;28;20167;-78
2021/03/02 06:02:21;;;;;;;16.67;9.82;;;;;;;;;;5035332;28;20180;-81
2021/03/02 06:04:50;;;;;;;16.25;8.52;;;;;;;;;;5036466;28;20471;-80
2021/03/02 06:07:16;;;;;;;12.90;8.60;;;;;;;;;;5036154;28;20180;-74
2021/03/02 06:09:44;;;;;;;21.83;10.52;;;;;;;;;;5035389;28;20173;-76
2021/03/02 06:12:10;;;;;;;15.95;10.13;;;;;;;;;;5036040;28;20166;-78
2021/03/02 06:14:36;;;;;;;18.98;9.35;;;;;;;;;;5034827;28;20600;-77
2021/03/02 06:17:03;;;;;;;15.07;8.45;;;;;;;;;;5034099;28;20504;-78
2021/03/02 06:19:39;;;;;;;16.45;9.18;;;;;;;;;;5035183;28;20176;-78
2021/03/02 06:22:06;;;;;;;10.63;8.48;;;;;;;;;;5045877;28;20177;-79
2021/03/02 06:24:39;;;;;;;14.48;7.88;;;;;;;;;;5037665;28;20681;-76
2021/03/02 06:30:12;;;;;;;10.23;8.57;;;;;;;;;;5034767;28;20188;-78
2021/03/02 06:32:46;;;;;;;11.55;9.43;;;;;;;;;;5034180;28;20181;-76
2021/03/02 06:35:13;;;;;;;11.80;9.20;;;;;;;;;;5034355;28;20263;-76
2021/03/02 06:37:39;;;;;;;13.25;8.25;;;;;;;;;;5034126;28;20189;-74
2021/03/02 06:40:05;;;;;;;16.17;9.60;;;;;;;;;;5034795;28;20239;-75
2021/03/02 06:42:36;;;;;;;14.43;8.98;;;;;;;;;;5035166;28;20223;-76
2021/03/02 06:45:16;;;;;;;15.13;9.90;;;;;;;;;;5034959;28;20180;-75
2021/03/02 06:47:42;;;;;;;9.20;8.25;;;;;;;;;;5035283;28;20170;-77
2021/03/02 06:50:12;;;;;;;12.45;8.63;;;;;;;;;;5034554;28;20201;-77
2021/03/02 06:52:41;;;;;;;13.25;8.95;;;;;;;;;;5034867;28;20191;-77
2021/03/02 06:55:16;;;;;;;11.85;9.45;;;;;;;;;;5035403;28;20237;-74
2021/03/02 06:57:42;;;;;;;10.73;8.68;;;;;;;;;;5035620;28;20682;-75
2021/03/02 07:00:09;;;;;;;12.95;9.45;;;;;;;;;;5035109;28;20173;-76
2021/03/02 07:02:36;;;;;;;12.02;9.13;;;;;;;;;;5035084;28;20565;-76
2021/03/02 07:05:12;;;;;;;14.82;9.38;;;;;;;;;;5035396;28;20235;-78
2021/03/02 07:07:40;;;;;;;16.15;8.60;;;;;;;;;;5035225;28;20253;-76
2021/03/02 07:10:06;;;;;;;33.35;14.70;;;;;;;;;;5035433;28;20201;-76
2021/03/02 07:15:39;;;;;;;17.65;10.25;;;;;;;;;;5035901;28;20252;-77
2021/03/02 07:18:06;;;;;;;14.68;10.38;;;;;;;;;;5035940;28;20584;-81
2021/03/02 07:20:33;;;;;;;12.07;10.07;;;;;;;;;;5035023;28;20263;-77
2021/03/02 07:23:01;;;;;;;12.77;9.70;;;;;;;;;;5034720;28;20253;-78
2021/03/02 07:25:29;;;;;;;13.90;9.88;;;;;;;;;;5034977;28;20169;-77
2021/03/02 07:27:56;;;;;;;12.68;9.93;;;;;;;;;;5035097;28;20160;-75
2021/03/02 07:30:23;;;;;;;13.38;8.77;;;;;;;;;;5034801;28;20257;-77
2021/03/02 07:32:49;;;;;;;19.30;11.40;;;;;;;;;;5035108;28;20637;-74
2021/03/02 07:35:22;;;;;;;19.20;10.32;;;;;;;;;;5035280;28;20209;-78
2021/03/02 07:37:48;;;;;;;19.08;9.80;;;;;;;;;;5035233;28;20645;-76
2021/03/02 07:40:15;;;;;;;26.42;11.10;;;;;;;;;;5035351;28;20180;-76
2021/03/02 07:45:45;;;;;;;16.50;10.70;;;;;;;;;;5034945;28;20211;-76
2021/03/02 07:48:23;;;;;;;14.75;9.55;;;;;;;;;;5035406;28;20175;-78
2021/03/02 07:51:09;;;;;;;19.88;9.20;;;;;;;;;;5035004;28;20164;-79
2021/03/02 07:53:35;;;;;;;16.10;10.83;;;;;;;;;;5034728;28;20611;-79
2021/03/02 07:56:19;;;;;;;20.23;10.07;;;;;;;;;;5034511;28;20467;-80
2021/03/02 07:58:45;;;;;;;16.73;9.63;;;;;;;;;;5035141;28;20487;-79
2021/03/02 08:01:20;;;;;;;13.83;9.87;;;;;;;;;;5034873;28;20412;-76
2021/03/02 08:03:47;;;;;;;16.53;10.87;;;;;;;;;;5041168;28;20447;-77
2021/03/02 08:06:22;;;;;;;13.20;9.37;;;;;;;;;;5036074;28;20423;-81
2021/03/02 08:08:49;;;;;;;16.10;11.20;;;;;;;;;;5033505;28;20462;-76
2021/03/02 08:11:28;;;;;;;25.37;12.00;;;;;;;;;;5033417;28;20424;-75
2021/03/02 08:13:53;;;;;;;16.30;11.77;;;;;;;;;;5033418;28;20410;-79
2021/03/02 08:16:39;;;;;;;19.27;10.50;;;;;;;;;;5033044;28;20423;-79
2021/03/02 08:19:25;;;;;;;11.57;9.13;;;;;;;;;;5033114;28;20428;-78
2021/03/02 08:21:51;;;;;;;19.93;11.17;;;;;;;;;;5032896;28;20423;-76
2021/03/02 08:24:17;;;;;;;24.43;12.60;;;;;;;;;;5032000;28;20937;-79
2021/03/02 08:26:44;;;;;;;13.40;10.70;;;;;;;;;;5032860;28;20444;-75
2021/03/02 08:29:17;;;;;;;15.33;9.93;;;;;;;;;;5032587;28;20400;-80
2021/03/02 08:31:48;;;;;;;15.73;11.00;;;;;;;;;;5032689;28;20489;-78
2021/03/02 08:34:14;;;;;;;21.00;10.50;;;;;;;;;;5032715;28;20463;-77
2021/03/02 08:36:41;;;;;;;12.93;11.57;;;;;;;;;;5032719;28;20461;-79
2021/03/02 08:39:17;;;;;;;14.13;10.47;;;;;;;;;;5032711;28;20457;-82
2021/03/02 08:41:44;;;;;;;11.20;9.73;;;;;;;;;;5032910;28;20431;-75
2021/03/02 08:44:21;;;;;;;11.00;9.60;;;;;;;;;;5033053;28;20404;-81
2021/03/02 08:46:51;;;;;;;14.03;10.33;;;;;;;;;;5032598;28;20411;-79
2021/03/02 08:49:17;;;;;;;15.30;10.53;;;;;;;;;;5032790;28;20412;-77
2021/03/02 08:51:43;;;;;;;15.83;11.13;;;;;;;;;;5033396;28;20501;-79
2021/03/02 08:54:09;;;;;;;14.43;10.30;;;;;;;;;;5033418;28;20467;-77
2021/03/02 08:56:35;;;;;;;13.57;9.37;;;;;;;;;;5033834;28;20926;-79
2021/03/02 08:59:11;;;;;;;12.83;10.80;;;;;;;;;;5032840;28;20925;-80
2021/03/02 09:01:37;;;;;;;16.27;10.37;;;;;;;;;;5014289;28;20861;-80
2021/03/02 09:04:10;;;;;;;15.63;11.80;;;;;;;;;;5032265;28;20443;-75
2021/03/02 09:06:37;;;;;;;11.40;10.30;;;;;;;;;;5032136;28;20412;-79
2021/03/02 09:09:05;;;;;;;12.00;10.20;;;;;;;;;;5032292;28;20411;-81
2021/03/02 09:11:54;;;;;;;13.33;11.07;;;;;;;;;;5032508;28;20527;-79
2021/03/02 09:14:30;;;;;;;11.50;10.37;;;;;;;;;;5019935;28;20471;-81
2021/03/02 09:16:59;;;;;;;12.73;10.47;;;;;;;;;;5032895;28;20423;-78
2021/03/02 09:19:28;;;;;;;13.70;11.53;;;;;;;;;;5032999;28;20431;-80
2021/03/02 09:21:57;;;;;;;12.37;10.63;;;;;;;;;;5032864;28;20423;-81
2021/03/02 09:24:24;;;;;;;13.37;10.50;;;;;;;;;;5032913;28;20416;-78
2021/03/02 09:26:50;;;;;;;12.60;11.13;;;;;;;;;;5033121;28;20408;-80
2021/03/02 09:29:16;;;;;;;13.50;11.30;;;;;;;;;;5032871;28;20479;-80
2021/03/02 09:31:43;;;;;;;16.60;10.73;;;;;;;;;;5032703;28;20469;-78
2021/03/02 09:34:09;;;;;;;17.37;9.63;;;;;;;;;;5032713;28;20543;-79
2021/03/02 09:36:35;;;;;;;10.90;9.80;;;;;;;;;;5031643;28;20451;-77
2021/03/02 09:39:16;;;;;;;11.47;10.20;;;;;;;;;;5031997;28;20404;-79
2021/03/02 09:41:42;;;;;;;10.50;9.30;;;;;;;;;;5031861;28;20478;-80
2021/03/02 09:44:19;;;;;;;12.63;10.60;;;;;;;;;;5014418;28;20438;-78
2021/03/02 09:46:45;;;;;;;12.70;10.17;;;;;;;;;;5031620;28;20462;-78
2021/03/02 09:49:11;;;;;;;12.10;10.50;;;;;;;;;;5032057;28;20447;-81
2021/03/02 09:51:37;;;;;;;12.17;10.37;;;;;;;;;;5040601;28;20427;-79
2021/03/02 09:54:18;;;;;;;12.47;11.20;;;;;;;;;;5035278;28;20464;-80
2021/03/02 09:56:55;;;;;;;12.70;10.80;;;;;;;;;;5032591;28;20935;-80
2021/03/02 09:59:21;;;;;;;12.53;11.23;;;;;;;;;;5032078;28;20416;-78
2021/03/02 10:01:48;;;;;;;11.67;10.47;;;;;;;;;;5031738;28;20458;-81
2021/03/02 10:04:14;;;;;;;11.53;10.37;;;;;;;;;;5031837;28;20769;-79
2021/03/02 10:06:40;;;;;;;14.10;11.40;;;;;;;;;;5031650;28;20454;-78
2021/03/02 10:09:18;;;;;;;11.47;10.37;;;;;;;;;;5031656;28;20914;-79
2021/03/02 10:11:44;;;;;;;12.80;11.50;;;;;;;;;;5031202;28;20460;-79
2021/03/02 10:14:10;;;;;;;12.00;10.73;;;;;;;;;;5031423;28;20510;-80
2021/03/02 10:16:41;;;;;;;11.93;10.83;;;;;;;;;;5031246;28;20986;-79
2021/03/02 10:19:18;;;;;;;12.97;11.77;;;;;;;;;;5031527;28;20817;-79
2021/03/02 10:21:45;;;;;;;11.93;10.73;;;;;;;;;;5031211;28;20427;-80
2021/03/02 10:24:17;;;;;;;12.13;10.77;;;;;;;;;;5031471;28;20413;-80
2021/03/02 10:26:43;;;;;;;12.80;11.40;;;;;;;;;;5031221;28;20411;-79
2021/03/02 10:29:10;;;;;;;14.60;12.07;;;;;;;;;;5031421;28;20416;-80
2021/03/02 10:31:36;;;;;;;13.30;11.97;;;;;;;;;;5031583;28;20447;-80
2021/03/02 10:34:03;;;;;;;13.47;11.60;;;;;;;;;;5031050;28;20426;-82
2021/03/02 10:36:32;;;;;;;13.93;10.50;;;;;;;;;;5030851;28;20510;-80
2021/03/02 10:38:58;;;;;;;13.30;10.77;;;;;;;;;;5031465;28;20756;-81
2021/03/02 10:41:28;;;;;;;11.67;10.50;;;;;;;;;;5030979;28;20999;-80
2021/03/02 10:43:55;;;;;;;14.10;11.20;;;;;;;;;;5031590;28;20474;-80
2021/03/02 10:46:22;;;;;;;13.33;11.70;;;;;;;;;;5031178;28;20423;-82
2021/03/02 10:48:49;;;;;;;12.17;11.00;;;;;;;;;;5036141;28;20418;-78
2021/03/02 10:51:16;;;;;;;16.27;11.37;;;;;;;;;;5034996;28;20416;-79
2021/03/02 10:53:42;;;;;;;13.53;12.33;;;;;;;;;;5034564;28;20463;-81
2021/03/02 10:56:09;;;;;;;12.37;11.23;;;;;;;;;;5034413;28;20471;-79
2021/03/02 11:01:38;;;;;;;16.27;11.90;;;;;;;;;;5034616;28;20492;-80
2021/03/02 11:04:04;;;;;;;12.97;11.67;;;;;;;;;;5017097;28;20435;-78
2021/03/02 11:06:31;;;;;;;13.27;11.33;;;;;;;;;;5016604;28;20509;-80
2021/03/02 11:08:57;;;;;;;12.43;11.23;;;;;;;;;;5034390;28;20416;-80
2021/03/02 11:11:24;;;;;;;14.60;13.00;;;;;;;;;;5035021;28;20412;-82
2021/03/02 11:16:53;;;;;;;16.83;15.23;;;;;;;;;;5034561;28;20466;-78
2021/03/02 11:19:19;;;;;;;12.90;11.80;;;;;;;;;;5035385;28;20412;-78
2021/03/02 11:21:45;;;;;;;14.40;12.63;;;;;;;;;;5035823;28;20755;-80
2021/03/02 11:24:11;;;;;;;13.47;12.10;;;;;;;;;;5037721;28;20502;-76
2021/03/02 11:26:37;;;;;;;13.07;11.50;;;;;;;;;;5019338;28;20850;-81
2021/03/02 11:29:03;;;;;;;14.67;12.00;;;;;;;;;;5035090;28;20412;-78
2021/03/02 11:31:29;;;;;;;13.80;12.57;;;;;;;;;;5035292;28;20427;-80
2021/03/02 11:33:55;;;;;;;12.67;11.47;;;;;;;;;;5035329;28;20461;-79
2021/03/02 11:36:21;;;;;;;15.20;12.33;;;;;;;;;;5034982;28;20938;-79
2021/03/02 11:38:47;;;;;;;14.20;12.20;;;;;;;;;;5035367;28;20414;-85
2021/03/02 11:41:13;;;;;;;13.70;12.07;;;;;;;;;;5035262;28;20423;-81
2021/03/02 11:46:43;;;;;;;13.03;11.83;;;;;;;;;;5039048;28;20422;-77
2021/03/02 11:49:09;;;;;;;16.33;10.70;;;;;;;;;;5044604;28;20456;-81
2021/03/02 11:51:35;;;;;;;14.40;12.30;;;;;;;;;;5036322;28;20420;-78
2021/03/02 11:54:01;;;;;;;13.17;11.77;;;;;;;;;;5035168;28;21055;-77
2021/03/02 11:56:27;;;;;;;16.37;13.20;;;;;;;;;;5035113;28;20447;-77
2021/03/02 12:01:56;;;;;;;16.53;12.97;;;;;;;;;;5033066;28;20565;-77
2021/03/02 12:04:22;;;;;;;13.20;11.97;;;;;;;;;;5033195;28;20503;-77
2021/03/02 12:06:48;;;;;;;12.73;11.43;;;;;;;;;;5033772;28;20442;-76
2021/03/02 12:09:14;;;;;;;14.80;13.40;;;;;;;;;;5033262;28;20419;-76
2021/03/02 12:11:40;;;;;;;13.37;12.00;;;;;;;;;;5033443;28;20890;-76
2021/03/02 12:17:10;;;;;;;14.63;12.00;;;;;;;;;;5033318;28;20485;-76
2021/03/02 12:19:36;;;;;;;12.27;11.07;;;;;;;;;;5033476;28;20424;-82
2021/03/02 12:22:02;;;;;;;13.33;11.93;;;;;;;;;;5033113;28;20767;-80
2021/03/02 12:24:28;;;;;;;13.40;11.77;;;;;;;;;;5032994;28;20412;-77
2021/03/02 12:26:55;;;;;;;13.87;11.30;;;;;;;;;;5032953;28;20424;-80
2021/03/02 12:29:21;;;;;;;12.90;11.10;;;;;;;;;;5033093;28;20416;-81
2021/03/02 12:31:48;;;;;;;15.57;10.93;;;;;;;;;;5033124;28;20426;-81
2021/03/02 12:34:14;;;;;;;12.10;10.40;;;;;;;;;;5032941;28;20921;-78
2021/03/02 12:36:40;;;;;;;11.57;10.47;;;;;;;;;;5033014;28;20452;-80
2021/03/02 12:39:08;;;;;;;15.67;9.83;;;;;;;;;;5033035;28;20528;-76
2021/03/02 12:41:34;;;;;;;10.93;9.10;;;;;;;;;;5032978;28;20443;-82
2021/03/02 12:47:03;;;;;;;11.13;8.83;;;;;;;;;;5033629;28;20968;-78
2021/03/02 12:49:29;;;;;;;9.73;8.60;;;;;;;;;;5034576;28;20415;-82
2021/03/02 12:51:56;;;;;;;11.00;9.80;;;;;;;;;;5035084;28;20412;-80
2021/03/02 12:54:38;;;;;;;10.43;8.73;;;;;;;;;;5104134;27;883130;-77
2021/03/02 12:57:04;;;;;;;10.53;9.33;;;;;;;;;;5120161;28;20268;-80
2021/03/02 12:59:30;;;;;;;10.97;9.90;;;;;;;;;;5116079;28;20436;-82
2021/03/02 13:01:56;;;;;;;16.40;11.43;;;;;;;;;;5119631;28;20528;-81
2021/03/02 13:04:22;;;;;;;13.10;10.77;;;;;;;;;;5122010;28;20795;-80
2021/03/02 13:06:48;;;;;;;14.20;10.93;;;;;;;;;;5121276;28;20471;-80
2021/03/02 13:09:15;;;;;;;11.43;10.30;;;;;;;;;;5116070;28;20439;-81
2021/03/02 13:11:44;;;;;;;12.07;10.80;;;;;;;;;;5123743;28;20523;-79
2021/03/02 13:14:10;;;;;;;15.07;10.90;;;;;;;;;;5119984;28;20481;-81
2021/03/02 13:16:36;;;;;;;12.27;10.00;;;;;;;;;;5123509;28;20494;-77
2021/03/02 13:19:02;;;;;;;14.60;10.93;;;;;;;;;;5123483;28;20459;-80
2021/03/02 13:21:28;;;;;;;15.37;10.43;;;;;;;;;;5125439;28;20479;-80
2021/03/02 13:23:54;;;;;;;10.80;9.83;;;;;;;;;;5125033;28;20466;-82
2021/03/02 13:26:28;;;;;;;11.73;10.17;;;;;;;;;;5113880;27;20440;-82
2021/03/02 13:28:54;;;;;;;11.43;10.07;;;;;;;;;;5119440;28;20490;-84
2021/03/02 13:31:22;;;;;;;11.07;9.23;;;;;;;;;;5119724;28;21127;-79
2021/03/02 13:33:48;;;;;;;12.30;10.67;;;;;;;;;;5121020;28;20475;-78
2021/03/02 13:36:16;;;;;;;12.83;11.53;;;;;;;;;;5125062;28;20423;-78
2021/03/02 13:38:44;;;;;;;14.00;11.13;;;;;;;;;;5121398;28;20443;-76
2021/03/02 13:41:11;;;;;;;14.40;10.23;;;;;;;;;;5120728;28;20532;-80
2021/03/02 13:43:41;;;;;;;13.60;11.40;;;;;;;;;;5117839;28;20904;-79
2021/03/02 13:46:07;;;;;;;14.43;10.87;;;;;;;;;;5119247;28;20504;-78
2021/03/02 13:48:33;;;;;;;12.30;10.97;;;;;;;;;;5118658;28;20470;-81
2021/03/02 13:51:00;;;;;;;16.80;10.40;;;;;;;;;;5118594;28;20453;-78
2021/03/02 13:53:27;;;;;;;11.23;9.90;;;;;;;;;;5121193;28;20481;-79
2021/03/02 13:55:53;;;;;;;14.30;10.60;;;;;;;;;;5122171;28;20972;-76
2021/03/02 13:58:19;;;;;;;12.20;10.00;;;;;;;;;;5119126;28;20496;-77
2021/03/02 14:00:45;;;;;;;11.17;10.00;;;;;;;;;;5121277;28;20436;-77
2021/03/02 14:03:16;;;;;;;12.70;10.00;;;;;;;;;;5125189;28;20455;-78
2021/03/02 14:05:44;;;;;;;13.00;9.90;;;;;;;;;;5106849;28;20460;-77
2021/03/02 14:08:10;;;;;;;13.07;10.60;;;;;;;;;;5113211;28;20428;-78
2021/03/02 14:10:37;;;;;;;12.37;10.93;;;;;;;;;;5119238;28;20462;-78
2021/03/02 14:13:03;;;;;;;16.70;11.27;;;;;;;;;;5113541;28;20989;-78
2021/03/02 14:15:32;;;;;;;19.80;10.53;;;;;;;;;;5108374;28;20840;-78
2021/03/02 14:17:59;;;;;;;16.47;10.77;;;;;;;;;;5110224;28;20565;-80
2021/03/02 14:20:25;;;;;;;12.37;10.23;;;;;;;;;;5103583;28;20440;-79
2021/03/02 14:22:51;;;;;;;17.77;10.10;;;;;;;;;;5108839;28;20507;-80
2021/03/02 14:25:17;;;;;;;13.30;10.43;;;;;;;;;;5109872;28;20439;-81
2021/03/02 14:27:44;;;;;;;13.93;10.80;;;;;;;;;;5107185;28;20440;-80
2021/03/02 14:30:12;;;;;;;16.27;11.00;;;;;;;;;;5104519;28;20441;-80
2021/03/02 14:32:38;;;;;;;17.53;10.30;;;;;;;;;;5099737;28;20472;-80
2021/03/02 14:35:05;;;;;;;16.10;10.30;;;;;;;;;;5106995;28;20440;-79
2021/03/02 14:37:31;;;;;;;13.83;9.90;;;;;;;;;;5109103;28;20477;-78
2021/03/02 14:39:58;;;;;;;15.80;11.23;;;;;;;;;;5109535;28;20448;-83
2021/03/02 14:42:26;;;;;;;17.30;10.20;;;;;;;;;;5112205;28;20467;-76
2021/03/02 14:44:56;;;;;;;14.50;9.80;;;;;;;;;;5103282;28;20447;-78
2021/03/02 14:47:22;;;;;;;11.27;9.07;;;;;;;;;;5102018;28;20439;-77
2021/03/02 14:49:56;;;;;;;16.40;11.77;;;;;;;;;;5108917;28;20948;-78
2021/03/02 14:52:23;;;;;;;11.97;9.70;;;;;;;;;;5108577;28;20510;-80
2021/03/02 14:54:50;;;;;;;18.23;10.70;;;;;;;;;;5107871;28;20479;-81
2021/03/02 14:57:17;;;;;;;13.33;9.30;;;;;;;;;;5088821;27;20445;-79
2021/03/02 14:59:47;;;;;;;13.97;9.60;;;;;;;;;;5099357;28;20444;-79
2021/03/02 15:02:13;;;;;;;19.30;10.33;;;;;;;;;;5099473;28;20440;-78
2021/03/02 15:04:39;;;;;;;16.90;10.83;;;;;;;;;;5097404;28;20443;-77
2021/03/02 15:07:06;;;;;;;17.40;11.27;;;;;;;;;;5096055;28;20855;-76
2021/03/02 15:09:33;;;;;;;14.63;11.50;;;;;;;;;;5105499;28;20466;-78
2021/03/02 15:11:59;;;;;;;18.93;11.70;;;;;;;;;;5110214;28;20500;-80
2021/03/02 15:14:31;;;;;;;13.73;11.30;;;;;;;;;;5114621;28;20486;-77
2021/03/02 15:17:00;;;;;;;15.70;10.20;;;;;;;;;;5113731;28;20408;-77
2021/03/02 15:19:30;;;;;;;16.97;11.40;;;;;;;;;;5114766;28;20443;-82
2021/03/02 15:21:57;;;;;;;21.17;11.10;;;;;;;;;;5108359;28;20435;-81
2021/03/02 15:24:23;;;;;;;17.80;11.73;;;;;;;;;;5107114;28;20424;-79
2021/03/02 15:26:49;;;;;;;14.57;10.63;;;;;;;;;;5101111;28;20425;-79
2021/03/02 15:29:16;;;;;;;17.20;9.63;;;;;;;;;;5092740;28;20731;-82
2021/03/02 15:31:43;;;;;;;18.80;12.37;;;;;;;;;;5099790;28;20440;-83
2021/03/02 15:34:10;;;;;;;13.47;9.53;;;;;;;;;;5108148;27;20483;-81
2021/03/02 15:36:36;;;;;;;18.30;10.90;;;;;;;;;;5106338;28;20487;-79
2021/03/02 15:39:03;;;;;;;17.70;10.90;;;;;;;;;;5103971;28;20971;-80
2021/03/02 15:41:29;;;;;;;16.67;9.97;;;;;;;;;;5105361;28;20428;-83